createdAt,value
2023-04-09T00:03:02.371Z,101202.58
2023-04-09T00:08:04.025Z,101202.63
2023-04-09T00:13:06.250Z,101199.27
2023-04-09T00:18:07.799Z,101192.98
2023-04-09T00:23:10.669Z,101190.45
2023-04-09T00:28:13.257Z,101184.59
2023-04-09T00:33:15.290Z,101188.55
2023-04-09T00:38:17.113Z,101195.96
2023-04-09T00:43:18.778Z,101198.84
2023-04-09T00:48:20.833Z,101196.40
2023-04-09T00:53:22.474Z,101195.54
2023-04-09T00:58:24.055Z,101193.64
2023-04-09T01:03:25.897Z,101193.19
2023-04-09T01:08:39.093Z,101195.59
2023-04-09T01:13:53.395Z,101198.83
2023-04-09T01:19:03.906Z,101201.91
2023-04-09T01:24:27.140Z,101202.54
2023-04-09T01:29:33.758Z,101205.52
2023-04-09T01:34:36.509Z,101211.77
2023-04-09T01:39:39.116Z,101212.73
2023-04-09T01:44:41.674Z,101211.69
2023-04-09T01:49:44.751Z,101210.80
2023-04-09T01:54:46.388Z,101210.57
2023-04-09T01:59:47.902Z,101212.10
2023-04-09T02:04:53.089Z,101210.36
2023-04-09T02:09:54.904Z,101212.16
2023-04-09T02:14:57.921Z,101204.54
2023-04-09T02:19:59.420Z,101203.34
2023-04-09T02:25:01.444Z,101209.32
2023-04-09T02:30:04.548Z,101206.13
2023-04-09T02:35:06.664Z,101204.47
2023-04-09T02:40:09.324Z,101202.23
2023-04-09T02:45:11.713Z,101201.85
2023-04-09T02:50:13.199Z,101195.56
2023-04-09T02:55:15.431Z,101192.75
2023-04-09T03:00:17.378Z,101193.38
2023-04-09T03:05:18.892Z,101193.23
2023-04-09T03:10:20.545Z,101193.71
2023-04-09T03:15:22.052Z,101188.31
2023-04-09T03:20:23.723Z,101187.63
2023-04-09T03:25:25.221Z,101185.20
2023-04-09T03:30:26.851Z,101184.27
2023-04-09T03:35:28.426Z,101187.04
2023-04-09T03:40:30.005Z,101193.14
2023-04-09T03:45:31.604Z,101200.36
2023-04-09T03:50:39.635Z,101202.77
2023-04-09T03:55:41.150Z,101206.06
2023-04-09T04:00:43.534Z,101205.27
2023-04-09T04:05:45.269Z,101206.85
2023-04-09T04:10:47.114Z,101209.12
2023-04-09T04:15:48.618Z,101209.84
2023-04-09T04:20:50.594Z,101209.52
2023-04-09T04:25:53.267Z,101213.73
2023-04-09T04:30:54.965Z,101213.90
2023-04-09T04:36:08.838Z,101220.48
2023-04-09T04:41:11.980Z,101223.85
2023-04-09T04:46:13.529Z,101218.94
2023-04-09T04:51:15.399Z,101223.34
2023-04-09T04:56:16.961Z,101220.46
2023-04-09T05:01:19.132Z,101226.70
2023-04-09T05:06:20.851Z,101225.88
2023-04-09T05:11:22.389Z,101227.47
2023-04-09T05:16:24.146Z,101228.13
2023-04-09T05:21:26.272Z,101229.05
2023-04-09T05:26:27.772Z,101227.88
2023-04-09T05:31:29.504Z,101229.88
2023-04-09T05:36:32.240Z,101232.98
2023-04-09T05:41:34.486Z,101229.48
2023-04-09T05:46:35.980Z,101231.55
2023-04-09T05:51:37.466Z,101232.48
2023-04-09T05:56:39.195Z,101232.27
2023-04-09T06:01:40.953Z,101232.52
2023-04-09T06:06:42.444Z,101239.77
2023-04-09T06:11:43.926Z,101238.60
2023-04-09T06:16:45.427Z,101240.09
2023-04-09T06:21:46.925Z,101248.52
2023-04-09T06:26:49.075Z,101251.05
2023-04-09T06:31:50.572Z,101245.42
2023-04-09T06:36:52.065Z,101247.63
2023-04-09T06:41:53.569Z,101252.66
2023-04-09T06:46:55.386Z,101256.40
2023-04-09T06:51:57.157Z,101257.60
2023-04-09T06:56:58.690Z,101260.77
2023-04-09T07:02:01.637Z,101267.02
2023-04-09T07:07:03.184Z,101274.38
2023-04-09T07:12:04.711Z,101279.01
2023-04-09T07:17:06.376Z,101276.79
2023-04-09T07:22:08.185Z,101270.65
2023-04-09T07:27:10.547Z,101280.61
2023-04-09T07:32:12.492Z,101279.05
2023-04-09T07:37:14.011Z,101283.95
2023-04-09T07:42:15.884Z,101282.13
2023-04-09T07:47:17.667Z,101273.88
2023-04-09T07:52:20.191Z,101269.61
2023-04-09T07:57:22.181Z,101265.09
2023-04-09T08:02:24.638Z,101257.38
2023-04-09T08:07:26.346Z,101250.61
2023-04-09T08:12:27.881Z,101256.21
2023-04-09T08:17:29.824Z,101252.04
2023-04-09T08:22:31.626Z,101251.76
2023-04-09T08:27:34.056Z,101247.80
2023-04-09T08:32:36.444Z,101256.44
2023-04-09T08:37:38.472Z,101256.29
2023-04-09T08:42:56.278Z,101257.23
2023-04-09T08:48:03.420Z,101260.02
2023-04-09T08:53:07.369Z,101264.71
2023-04-09T08:58:10.529Z,101270.93
2023-04-09T09:03:13.640Z,101265.15
2023-04-09T09:08:25.340Z,101265.86
2023-04-09T09:13:28.133Z,101264.18
2023-04-09T09:18:39.213Z,101261.17
2023-04-09T09:23:42.604Z,101255.97
2023-04-09T09:28:48.522Z,101251.06
2023-04-09T09:33:51.240Z,101247.99
2023-04-09T09:38:57.308Z,101243.83
2023-04-09T09:43:59.452Z,101240.39
2023-04-09T09:49:01.575Z,101235.60
2023-04-09T09:54:03.758Z,101234.51
2023-04-09T09:59:17.412Z,101232.68
2023-04-09T10:04:21.404Z,101228.08
2023-04-09T10:09:24.097Z,101221.06
2023-04-09T10:14:28.928Z,101227.27
2023-04-09T10:19:34.939Z,101227.77
2023-04-09T10:24:36.731Z,101230.60
2023-04-09T10:29:48.719Z,101227.98
2023-04-09T10:34:51.077Z,101227.70
2023-04-09T10:39:53.591Z,101229.85
2023-04-09T10:45:12.585Z,101227.83
2023-04-09T10:50:17.249Z,101222.84
2023-04-09T10:55:41.876Z,101219.17
2023-04-09T11:00:45.605Z,101218.77
2023-04-09T11:06:11.634Z,101213.27
2023-04-09T11:11:13.787Z,101214.08
2023-04-09T11:16:24.284Z,101212.95
2023-04-09T11:21:31.599Z,101207.74
2023-04-09T11:26:36.978Z,101208.02
2023-04-09T11:31:38.533Z,101208.89
2023-04-09T11:36:40.992Z,101209.26
2023-04-09T11:41:43.724Z,101217.42
2023-04-09T11:46:45.698Z,101212.92
2023-04-09T11:51:47.464Z,101211.42
2023-04-09T11:56:55.838Z,101213.61
2023-04-09T12:01:58.412Z,101211.09
2023-04-09T12:07:00.614Z,101213.77
2023-04-09T12:12:03.020Z,101210.61
2023-04-09T12:17:04.509Z,101210.30
2023-04-09T12:22:06.601Z,101211.61
2023-04-09T12:27:08.275Z,101209.55
2023-04-09T12:32:10.066Z,101201.14
2023-04-09T12:37:11.933Z,101199.05
2023-04-09T12:42:13.728Z,101193.15
2023-04-09T12:47:15.430Z,101190.59
2023-04-09T12:52:18.546Z,101194.68
2023-04-09T12:57:20.054Z,101188.69
2023-04-09T13:02:22.109Z,101186.75
2023-04-09T13:07:24.385Z,101185.71
2023-04-09T13:12:26.027Z,101180.13
2023-04-09T13:17:28.018Z,101176.27
2023-04-09T13:22:29.684Z,101175.42
2023-04-09T13:27:31.493Z,101179.67
2023-04-09T13:32:33.194Z,101172.09
2023-04-09T13:37:34.996Z,101168.45
2023-04-09T13:42:37.658Z,101172.02
2023-04-09T13:47:39.225Z,101165.82
2023-04-09T13:52:40.785Z,101163.14
2023-04-09T13:57:42.293Z,101164.19
2023-04-09T14:02:43.875Z,101166.82
2023-04-09T14:07:45.907Z,101164.11
2023-04-09T14:12:47.627Z,101163.64
2023-04-09T14:17:49.203Z,101157.67
2023-04-09T14:22:51.761Z,101156.83
2023-04-09T14:27:53.275Z,101147.05
2023-04-09T14:32:54.796Z,101146.31
2023-04-09T14:37:56.342Z,101140.26
2023-04-09T14:43:01.162Z,101135.34
2023-04-09T14:48:03.438Z,101127.05
2023-04-09T14:53:05.675Z,101126.70
2023-04-09T14:58:08.668Z,101127.10
2023-04-09T15:03:10.503Z,101130.36
2023-04-09T15:08:13.324Z,101129.71
2023-04-09T15:13:15.682Z,101133.80
2023-04-09T15:18:17.169Z,101139.10
2023-04-09T15:23:18.676Z,101141.86
2023-04-09T15:28:20.461Z,101138.52
2023-04-09T15:33:22.098Z,101136.05
2023-04-09T15:38:25.726Z,101130.86
2023-04-09T15:43:28.006Z,101125.39
2023-04-09T15:48:32.824Z,101127.85
2023-04-09T15:53:34.632Z,101129.27
2023-04-09T15:58:36.595Z,101133.48
2023-04-09T16:03:41.947Z,101131.83
2023-04-09T16:08:44.356Z,101137.42
2023-04-09T16:13:46.560Z,101135.90
2023-04-09T16:18:48.143Z,101136.91
2023-04-09T16:23:49.721Z,101144.42
2023-04-09T16:28:51.728Z,101147.18
2023-04-09T16:33:53.812Z,101148.33
2023-04-09T16:38:55.627Z,101153.80
2023-04-09T16:43:57.139Z,101154.34
2023-04-09T16:48:58.673Z,101156.45
2023-04-09T16:54:00.386Z,101159.83
2023-04-09T16:59:02.393Z,101163.33
2023-04-09T17:04:04.193Z,101165.54
2023-04-09T17:09:06.612Z,101169.66
2023-04-09T17:14:08.274Z,101174.35
2023-04-09T17:19:10.395Z,101177.97
2023-04-09T17:24:12.105Z,101176.20
2023-04-09T17:29:13.845Z,101177.75
2023-04-09T17:34:16.457Z,101180.33
2023-04-09T17:39:18.030Z,101186.92
2023-04-09T17:44:19.556Z,101190.83
2023-04-09T17:49:22.427Z,101191.60
2023-04-09T17:54:24.853Z,101194.95
2023-04-09T17:59:27.281Z,101199.64
2023-04-09T18:04:29.045Z,101203.18
2023-04-09T18:09:32.200Z,101210.76
2023-04-09T18:14:33.964Z,101218.73
2023-04-09T18:19:36.068Z,101228.49
2023-04-09T18:24:37.595Z,101234.46
2023-04-09T18:29:39.420Z,101238.67
2023-04-09T18:34:41.131Z,101240.52
2023-04-09T18:39:43.169Z,101246.78
2023-04-09T18:44:45.731Z,101253.96
2023-04-09T18:49:47.498Z,101257.41
2023-04-09T18:54:49.534Z,101262.40
2023-04-09T18:59:51.656Z,101268.83
2023-04-09T19:04:53.665Z,101272.75
2023-04-09T19:09:55.313Z,101266.59
2023-04-09T19:14:56.842Z,101267.72
2023-04-09T19:19:58.401Z,101269.04
2023-04-09T19:25:00.227Z,101267.28
2023-04-09T19:30:01.779Z,101267.43
2023-04-09T19:35:04.000Z,101260.36
2023-04-09T19:40:06.526Z,101261.97
2023-04-09T19:45:08.968Z,101261.08
2023-04-09T19:50:11.498Z,101257.21
2023-04-09T19:55:13.100Z,101257.17
2023-04-09T20:00:14.797Z,101261.98
2023-04-09T20:05:20.982Z,101260.48
2023-04-09T20:10:22.571Z,101261.88
2023-04-09T20:15:24.148Z,101265.29
2023-04-09T20:20:26.220Z,101264.48
2023-04-09T20:25:34.367Z,101266.10
2023-04-09T20:30:36.326Z,101262.41
2023-04-09T20:35:38.016Z,101263.43
2023-04-09T20:40:39.704Z,101263.93
2023-04-09T20:45:41.260Z,101262.09
2023-04-09T20:50:43.476Z,101264.34
2023-04-09T20:55:46.048Z,101262.80
2023-04-09T21:00:47.834Z,101260.48
2023-04-09T21:05:49.340Z,101259.67
2023-04-09T21:10:51.314Z,101255.83
2023-04-09T21:15:53.569Z,101249.73
2023-04-09T21:20:55.537Z,101250.39
2023-04-09T21:25:57.476Z,101245.16
2023-04-09T21:30:59.816Z,101249.46
2023-04-09T21:36:03.513Z,101247.31
2023-04-09T21:41:05.359Z,101248.65
2023-04-09T21:46:07.576Z,101244.14
2023-04-09T21:51:10.793Z,101245.92
2023-04-09T21:56:12.272Z,101247.80
2023-04-09T22:01:26.247Z,101249.55
2023-04-09T22:06:31.100Z,101255.73
2023-04-09T22:11:34.466Z,101255.33
2023-04-09T22:16:36.273Z,101257.13
2023-04-09T22:21:37.840Z,101263.05
2023-04-09T22:26:40.967Z,101262.70
2023-04-09T22:31:42.490Z,101266.67
2023-04-09T22:36:44.143Z,101268.39
2023-04-09T22:41:45.859Z,101274.87
2023-04-09T22:46:47.475Z,101276.56
2023-04-09T22:51:49.183Z,101274.77
2023-04-09T22:56:50.857Z,101277.90
2023-04-09T23:01:52.540Z,101275.70
2023-04-09T23:06:54.668Z,101277.82
2023-04-09T23:11:57.152Z,101273.42
2023-04-09T23:16:58.952Z,101271.27
2023-04-09T23:22:01.356Z,101269.77
2023-04-09T23:27:02.950Z,101268.62
2023-04-09T23:32:05.038Z,101266.41
2023-04-09T23:37:06.568Z,101265.70
2023-04-09T23:42:08.056Z,101264.05
2023-04-09T23:47:10.046Z,101260.42
2023-04-09T23:52:12.226Z,101262.80
2023-04-09T23:57:13.732Z,101262.86
